sensor_id;sensor_type;location;lat;lon;timestamp;pressure;altitude;pressure_sealevel;temperature;humidity
69058;BME280;56128;37.534;-122.308;2023-02-23T00:01:33;100796.94;;;6.82;80.36
69058;BME280;56128;37.534;-122.308;2023-02-23T00:03:59;100795.66;;;6.90;80.55
69058;BME280;56128;37.534;-122.308;2023-02-23T00:06:28;100794.44;;;6.95;80.77
69058;BME280;56128;37.534;-122.308;2023-02-23T00:08:54;100793.66;;;6.93;81.21
69058;BME280;56128;37.534;-122.308;2023-02-23T00:11:22;100790.84;;;6.96;81.60
69058;BME280;56128;37.534;-122.308;2023-02-23T00:13:49;100785.09;;;6.88;81.43
69058;BME280;56128;37.534;-122.308;2023-02-23T00:16:21;100783.22;;;6.90;83.09
69058;BME280;56128;37.534;-122.308;2023-02-23T00:18:53;100792.41;;;6.85;81.67
69058;BME280;56128;37.534;-122.308;2023-02-23T00:21:28;100797.25;;;6.78;82.48
69058;BME280;56128;37.534;-122.308;2023-02-23T00:24:09;100785.47;;;6.68;77.09
69058;BME280;56128;37.534;-122.308;2023-02-23T00:26:37;100781.53;;;6.59;74.75
69058;BME280;56128;37.534;-122.308;2023-02-23T00:29:10;100788.53;;;6.60;74.04
69058;BME280;56128;37.534;-122.308;2023-02-23T00:31:37;100795.09;;;6.54;75.91
69058;BME280;56128;37.534;-122.308;2023-02-23T00:34:05;100791.19;;;6.45;73.72
69058;BME280;56128;37.534;-122.308;2023-02-23T00:36:33;100785.34;;;6.39;74.24
69058;BME280;56128;37.534;-122.308;2023-02-23T00:39:06;100792.75;;;6.33;73.95
69058;BME280;56128;37.534;-122.308;2023-02-23T00:42:02;100791.06;;;6.32;74.38
69058;BME280;56128;37.534;-122.308;2023-02-23T00:44:31;100779.53;;;6.32;75.69
69058;BME280;56128;37.534;-122.308;2023-02-23T00:47:01;100786.38;;;6.36;76.39
69058;BME280;56128;37.534;-122.308;2023-02-23T00:49:27;100787.84;;;6.42;77.11
69058;BME280;56128;37.534;-122.308;2023-02-23T00:51:54;100780.28;;;6.50;83.02
69058;BME280;56128;37.534;-122.308;2023-02-23T00:54:20;100796.53;;;6.60;85.82
69058;BME280;56128;37.534;-122.308;2023-02-23T00:56:47;100790.91;;;6.50;91.81
69058;BME280;56128;37.534;-122.308;2023-02-23T00:59:13;100801.50;;;6.36;96.51
69058;BME280;56128;37.534;-122.308;2023-02-23T01:01:40;100791.91;;;6.17;100.00
69058;BME280;56128;37.534;-122.308;2023-02-23T01:04:08;100794.75;;;5.98;100.00
69058;BME280;56128;37.534;-122.308;2023-02-23T01:06:34;100800.03;;;5.82;100.00
69058;BME280;56128;37.534;-122.308;2023-02-23T01:09:15;100794.31;;;5.74;100.00
69058;BME280;56128;37.534;-122.308;2023-02-23T01:11:53;100796.19;;;5.56;100.00
69058;BME280;56128;37.534;-122.308;2023-02-23T01:14:21;100793.16;;;5.30;100.00
69058;BME280;56128;37.534;-122.308;2023-02-23T01:16:48;100788.59;;;5.16;100.00
69058;BME280;56128;37.534;-122.308;2023-02-23T01:19:14;100783.00;;;5.04;100.00
69058;BME280;56128;37.534;-122.308;2023-02-23T01:21:41;100787.34;;;5.06;100.00
69058;BME280;56128;37.534;-122.308;2023-02-23T01:24:08;100791.50;;;4.94;100.00
69058;BME280;56128;37.534;-122.308;2023-02-23T01:26:38;100782.16;;;4.86;100.00
69058;BME280;56128;37.534;-122.308;2023-02-23T01:29:07;100786.06;;;4.79;100.00
69058;BME280;56128;37.534;-122.308;2023-02-23T01:31:35;100780.22;;;4.72;100.00
69058;BME280;56128;37.534;-122.308;2023-02-23T01:34:03;100776.13;;;4.67;100.00
69058;BME280;56128;37.534;-122.308;2023-02-23T01:36:35;100782.56;;;4.61;100.00
69058;BME280;56128;37.534;-122.308;2023-02-23T01:39:08;100779.13;;;4.59;100.00
69058;BME280;56128;37.534;-122.308;2023-02-23T01:41:37;100770.63;;;4.52;100.00
69058;BME280;56128;37.534;-122.308;2023-02-23T01:44:07;100774.31;;;4.50;100.00
69058;BME280;56128;37.534;-122.308;2023-02-23T01:46:37;100772.75;;;4.46;100.00
69058;BME280;56128;37.534;-122.308;2023-02-23T01:49:08;100759.19;;;4.34;100.00
69058;BME280;56128;37.534;-122.308;2023-02-23T01:51:40;100766.19;;;4.35;100.00
69058;BME280;56128;37.534;-122.308;2023-02-23T01:54:12;100760.13;;;4.33;100.00
69058;BME280;56128;37.534;-122.308;2023-02-23T01:56:44;100764.94;;;4.25;100.00
69058;BME280;56128;37.534;-122.308;2023-02-23T01:59:15;100768.84;;;4.18;100.00
69058;BME280;56128;37.534;-122.308;2023-02-23T02:01:43;100769.78;;;4.17;100.00
69058;BME280;56128;37.534;-122.308;2023-02-23T02:04:10;100780.50;;;4.14;100.00
69058;BME280;56128;37.534;-122.308;2023-02-23T02:06:43;100784.88;;;4.15;100.00
69058;BME280;56128;37.534;-122.308;2023-02-23T02:09:14;100783.41;;;4.09;100.00
69058;BME280;56128;37.534;-122.308;2023-02-23T02:11:42;100772.16;;;4.04;100.00
69058;BME280;56128;37.534;-122.308;2023-02-23T02:14:21;100786.25;;;4.04;100.00
69058;BME280;56128;37.534;-122.308;2023-02-23T02:22:42;100782.97;;;3.99;100.00
69058;BME280;56128;37.534;-122.308;2023-02-23T02:30:54;100791.63;;;3.84;100.00
69058;BME280;56128;37.534;-122.308;2023-02-23T02:39:25;100783.31;;;3.74;100.00
69058;BME280;56128;37.534;-122.308;2023-02-23T02:42:19;100786.28;;;3.66;100.00
69058;BME280;56128;37.534;-122.308;2023-02-23T02:44:53;100796.31;;;3.60;100.00
69058;BME280;56128;37.534;-122.308;2023-02-23T02:50:22;100803.25;;;3.62;100.00
69058;BME280;56128;37.534;-122.308;2023-02-23T02:53:06;100798.13;;;3.59;100.00
69058;BME280;56128;37.534;-122.308;2023-02-23T02:55:37;100791.94;;;3.58;100.00
69058;BME280;56128;37.534;-122.308;2023-02-23T02:58:09;100794.66;;;3.57;100.00
69058;BME280;56128;37.534;-122.308;2023-02-23T03:00:44;100801.69;;;3.58;100.00
69058;BME280;56128;37.534;-122.308;2023-02-23T03:03:39;100797.41;;;3.55;100.00
69058;BME280;56128;37.534;-122.308;2023-02-23T03:06:42;100795.66;;;3.54;100.00
69058;BME280;56128;37.534;-122.308;2023-02-23T03:09:54;100802.09;;;3.49;100.00
69058;BME280;56128;37.534;-122.308;2023-02-23T03:12:50;100799.69;;;3.44;100.00
69058;BME280;56128;37.534;-122.308;2023-02-23T03:19:13;100814.03;;;3.38;100.00
69058;BME280;56128;37.534;-122.308;2023-02-23T03:28:15;100825.53;;;3.37;100.00
69058;BME280;56128;37.534;-122.308;2023-02-23T03:31:20;100829.25;;;3.33;100.00
69058;BME280;56128;37.534;-122.308;2023-02-23T03:34:15;100818.66;;;3.33;100.00
69058;BME280;56128;37.534;-122.308;2023-02-23T03:37:15;100824.38;;;3.24;100.00
69058;BME280;56128;37.534;-122.308;2023-02-23T03:40:09;100816.66;;;3.19;100.00
69058;BME280;56128;37.534;-122.308;2023-02-23T03:42:56;100832.72;;;3.15;100.00
69058;BME280;56128;37.534;-122.308;2023-02-23T03:45:43;100840.13;;;3.06;100.00
69058;BME280;56128;37.534;-122.308;2023-02-23T03:48:31;100837.34;;;3.09;100.00
69058;BME280;56128;37.534;-122.308;2023-02-23T03:51:20;100835.88;;;3.02;100.00
69058;BME280;56128;37.534;-122.308;2023-02-23T03:54:14;100836.84;;;3.01;100.00
69058;BME280;56128;37.534;-122.308;2023-02-23T03:57:04;100836.75;;;3.03;100.00
69058;BME280;56128;37.534;-122.308;2023-02-23T04:00:03;100840.97;;;3.07;100.00
69058;BME280;56128;37.534;-122.308;2023-02-23T04:02:50;100836.03;;;2.99;100.00
69058;BME280;56128;37.534;-122.308;2023-02-23T04:05:38;100846.94;;;2.91;100.00
69058;BME280;56128;37.534;-122.308;2023-02-23T04:08:30;100855.88;;;2.89;100.00
69058;BME280;56128;37.534;-122.308;2023-02-23T04:11:49;100850.69;;;2.86;100.00
69058;BME280;56128;37.534;-122.308;2023-02-23T04:14:42;100857.59;;;2.90;100.00
69058;BME280;56128;37.534;-122.308;2023-02-23T04:17:11;100860.63;;;3.01;100.00
69058;BME280;56128;37.534;-122.308;2023-02-23T04:19:49;100862.72;;;3.14;100.00
69058;BME280;56128;37.534;-122.308;2023-02-23T04:22:15;100862.53;;;3.18;100.00
69058;BME280;56128;37.534;-122.308;2023-02-23T04:24:42;100867.53;;;3.24;100.00
69058;BME280;56128;37.534;-122.308;2023-02-23T04:27:08;100882.94;;;3.35;100.00
69058;BME280;56128;37.534;-122.308;2023-02-23T04:29:34;100888.38;;;3.51;100.00
69058;BME280;56128;37.534;-122.308;2023-02-23T04:32:00;100897.06;;;3.55;100.00
69058;BME280;56128;37.534;-122.308;2023-02-23T04:34:27;100903.88;;;3.61;100.00
69058;BME280;56128;37.534;-122.308;2023-02-23T04:36:53;100914.09;;;3.68;100.00
69058;BME280;56128;37.534;-122.308;2023-02-23T04:39:19;100908.38;;;3.78;100.00
69058;BME280;56128;37.534;-122.308;2023-02-23T04:41:45;100914.56;;;3.78;100.00
69058;BME280;56128;37.534;-122.308;2023-02-23T04:44:13;100911.34;;;3.71;100.00
69058;BME280;56128;37.534;-122.308;2023-02-23T04:46:39;100923.03;;;3.66;100.00
69058;BME280;56128;37.534;-122.308;2023-02-23T04:49:06;100916.09;;;3.63;100.00
69058;BME280;56128;37.534;-122.308;2023-02-23T04:51:32;100893.97;;;3.45;100.00
69058;BME280;56128;37.534;-122.308;2023-02-23T04:53:59;100902.88;;;3.42;100.00
69058;BME280;56128;37.534;-122.308;2023-02-23T04:56:25;100907.75;;;3.33;100.00
69058;BME280;56128;37.534;-122.308;2023-02-23T04:58:51;100916.22;;;3.20;100.00
69058;BME280;56128;37.534;-122.308;2023-02-23T05:01:18;100913.34;;;3.04;100.00
69058;BME280;56128;37.534;-122.308;2023-02-23T05:03:49;100911.78;;;3.00;100.00
69058;BME280;56128;37.534;-122.308;2023-02-23T05:06:19;100904.22;;;2.91;100.00
69058;BME280;56128;37.534;-122.308;2023-02-23T05:08:45;100894.22;;;2.77;100.00
69058;BME280;56128;37.534;-122.308;2023-02-23T05:11:12;100901.66;;;2.67;100.00
69058;BME280;56128;37.534;-122.308;2023-02-23T05:13:38;100904.38;;;2.66;100.00
69058;BME280;56128;37.534;-122.308;2023-02-23T05:16:04;100909.13;;;2.57;100.00
69058;BME280;56128;37.534;-122.308;2023-02-23T05:18:31;100903.34;;;2.48;100.00
69058;BME280;56128;37.534;-122.308;2023-02-23T05:21:02;100898.25;;;2.43;100.00
69058;BME280;56128;37.534;-122.308;2023-02-23T05:23:29;100906.25;;;2.41;100.00
69058;BME280;56128;37.534;-122.308;2023-02-23T05:26:02;100918.28;;;2.49;100.00
69058;BME280;56128;37.534;-122.308;2023-02-23T05:28:32;100909.38;;;2.51;100.00
69058;BME280;56128;37.534;-122.308;2023-02-23T05:30:59;100912.63;;;2.58;100.00
69058;BME280;56128;37.534;-122.308;2023-02-23T05:33:26;100898.44;;;2.60;100.00
69058;BME280;56128;37.534;-122.308;2023-02-23T05:35:52;100913.47;;;2.58;100.00
69058;BME280;56128;37.534;-122.308;2023-02-23T05:38:18;100903.34;;;2.48;100.00
69058;BME280;56128;37.534;-122.308;2023-02-23T05:40:46;100917.47;;;2.47;100.00
69058;BME280;56128;37.534;-122.308;2023-02-23T05:43:12;100915.00;;;2.42;100.00
69058;BME280;56128;37.534;-122.308;2023-02-23T05:45:42;100923.13;;;2.37;100.00
69058;BME280;56128;37.534;-122.308;2023-02-23T05:48:10;100921.59;;;2.32;100.00
69058;BME280;56128;37.534;-122.308;2023-02-23T05:50:37;100922.69;;;2.26;100.00
69058;BME280;56128;37.534;-122.308;2023-02-23T05:53:03;100913.06;;;2.25;100.00
69058;BME280;56128;37.534;-122.308;2023-02-23T05:55:30;100925.38;;;2.24;100.00
69058;BME280;56128;37.534;-122.308;2023-02-23T05:57:56;100922.94;;;2.20;100.00
69058;BME280;56128;37.534;-122.308;2023-02-23T06:00:22;100924.00;;;2.14;100.00
69058;BME280;56128;37.534;-122.308;2023-02-23T06:02:49;100928.69;;;2.07;100.00
69058;BME280;56128;37.534;-122.308;2023-02-23T06:05:17;100935.91;;;2.02;100.00
69058;BME280;56128;37.534;-122.308;2023-02-23T06:07:44;100935.34;;;1.94;100.00
69058;BME280;56128;37.534;-122.308;2023-02-23T06:10:10;100939.09;;;1.87;100.00
69058;BME280;56128;37.534;-122.308;2023-02-23T06:12:37;100934.28;;;1.74;100.00
69058;BME280;56128;37.534;-122.308;2023-02-23T06:15:03;100940.53;;;1.72;100.00
69058;BME280;56128;37.534;-122.308;2023-02-23T06:17:29;100938.31;;;1.61;100.00
69058;BME280;56128;37.534;-122.308;2023-02-23T06:19:56;100948.09;;;1.57;100.00
69058;BME280;56128;37.534;-122.308;2023-02-23T06:22:24;100938.91;;;1.44;100.00
69058;BME280;56128;37.534;-122.308;2023-02-23T06:24:50;100947.69;;;1.44;100.00
69058;BME280;56128;37.534;-122.308;2023-02-23T06:27:16;100944.22;;;1.42;100.00
69058;BME280;56128;37.534;-122.308;2023-02-23T06:29:43;100938.34;;;1.34;100.00
69058;BME280;56128;37.534;-122.308;2023-02-23T06:32:09;100949.72;;;1.36;100.00
69058;BME280;56128;37.534;-122.308;2023-02-23T06:34:35;100951.53;;;1.34;100.00
69058;BME280;56128;37.534;-122.308;2023-02-23T06:37:01;100947.34;;;1.28;100.00
69058;BME280;56128;37.534;-122.308;2023-02-23T06:39:28;100959.84;;;1.23;100.00
69058;BME280;56128;37.534;-122.308;2023-02-23T06:41:54;100948.59;;;1.18;100.00
69058;BME280;56128;37.534;-122.308;2023-02-23T06:44:20;100957.41;;;1.17;100.00
69058;BME280;56128;37.534;-122.308;2023-02-23T06:46:47;100948.88;;;1.09;100.00
69058;BME280;56128;37.534;-122.308;2023-02-23T06:49:22;100952.41;;;1.09;100.00
69058;BME280;56128;37.534;-122.308;2023-02-23T06:51:48;100958.56;;;1.08;100.00
69058;BME280;56128;37.534;-122.308;2023-02-23T06:54:14;100959.53;;;1.06;100.00
69058;BME280;56128;37.534;-122.308;2023-02-23T06:56:41;100959.69;;;1.01;100.00
69058;BME280;56128;37.534;-122.308;2023-02-23T06:59:07;100960.75;;;0.95;100.00
69058;BME280;56128;37.534;-122.308;2023-02-23T07:01:33;100956.47;;;0.93;100.00
69058;BME280;56128;37.534;-122.308;2023-02-23T07:03:59;100957.44;;;0.89;100.00
69058;BME280;56128;37.534;-122.308;2023-02-23T07:06:26;100960.19;;;0.86;100.00
69058;BME280;56128;37.534;-122.308;2023-02-23T07:08:52;100960.25;;;0.84;100.00
69058;BME280;56128;37.534;-122.308;2023-02-23T07:11:18;100967.28;;;0.84;100.00
69058;BME280;56128;37.534;-122.308;2023-02-23T07:13:44;100960.28;;;0.83;100.00
69058;BME280;56128;37.534;-122.308;2023-02-23T07:16:11;100954.22;;;0.80;100.00
69058;BME280;56128;37.534;-122.308;2023-02-23T07:18:39;100949.75;;;0.83;100.00
69058;BME280;56128;37.534;-122.308;2023-02-23T07:21:05;100951.59;;;0.80;100.00
69058;BME280;56128;37.534;-122.308;2023-02-23T07:23:32;100955.78;;;0.86;100.00
69058;BME280;56128;37.534;-122.308;2023-02-23T07:25:58;100953.09;;;0.88;100.00
69058;BME280;56128;37.534;-122.308;2023-02-23T07:28:25;100952.88;;;0.95;100.00
69058;BME280;56128;37.534;-122.308;2023-02-23T07:30:56;100949.06;;;1.04;100.00
69058;BME280;56128;37.534;-122.308;2023-02-23T07:33:22;100945.13;;;1.16;100.00
69058;BME280;56128;37.534;-122.308;2023-02-23T07:35:50;100955.19;;;1.30;100.00
69058;BME280;56128;37.534;-122.308;2023-02-23T07:38:17;100939.44;;;1.28;100.00
69058;BME280;56128;37.534;-122.308;2023-02-23T07:40:43;100955.84;;;1.37;100.00
69058;BME280;56128;37.534;-122.308;2023-02-23T07:43:09;100960.06;;;1.42;100.00
69058;BME280;56128;37.534;-122.308;2023-02-23T07:45:36;100960.88;;;1.44;100.00
69058;BME280;56128;37.534;-122.308;2023-02-23T07:48:02;100961.44;;;1.53;100.00
69058;BME280;56128;37.534;-122.308;2023-02-23T07:50:28;100956.94;;;1.56;100.00
69058;BME280;56128;37.534;-122.308;2023-02-23T07:52:54;100955.09;;;1.58;100.00
69058;BME280;56128;37.534;-122.308;2023-02-23T07:55:21;100960.16;;;1.65;100.00
69058;BME280;56128;37.534;-122.308;2023-02-23T07:57:47;100959.00;;;1.72;100.00
69058;BME280;56128;37.534;-122.308;2023-02-23T08:00:13;100963.22;;;1.77;100.00
69058;BME280;56128;37.534;-122.308;2023-02-23T08:02:40;100963.16;;;1.79;100.00
69058;BME280;56128;37.534;-122.308;2023-02-23T08:05:06;100953.34;;;1.83;100.00
69058;BME280;56128;37.534;-122.308;2023-02-23T08:07:33;100959.53;;;1.82;100.00
69058;BME280;56128;37.534;-122.308;2023-02-23T08:09:59;100956.19;;;1.76;100.00
69058;BME280;56128;37.534;-122.308;2023-02-23T08:12:25;100950.19;;;1.73;100.00
69058;BME280;56128;37.534;-122.308;2023-02-23T08:14:51;100954.53;;;1.74;100.00
69058;BME280;56128;37.534;-122.308;2023-02-23T08:17:19;100953.91;;;1.67;100.00
69058;BME280;56128;37.534;-122.308;2023-02-23T08:19:45;100948.94;;;1.58;100.00
69058;BME280;56128;37.534;-122.308;2023-02-23T08:22:11;100955.09;;;1.58;100.00
69058;BME280;56128;37.534;-122.308;2023-02-23T08:24:37;100960.41;;;1.57;100.00
69058;BME280;56128;37.534;-122.308;2023-02-23T08:27:04;100955.41;;;1.49;100.00
69058;BME280;56128;37.534;-122.308;2023-02-23T08:29:30;100967.00;;;1.45;100.00
69058;BME280;56128;37.534;-122.308;2023-02-23T08:31:56;100967.13;;;1.40;100.00
69058;BME280;56128;37.534;-122.308;2023-02-23T08:34:23;100969.97;;;1.36;100.00
69058;BME280;56128;37.534;-122.308;2023-02-23T08:36:49;100969.28;;;1.29;100.00
69058;BME280;56128;37.534;-122.308;2023-02-23T08:39:16;100973.91;;;1.22;100.00
69058;BME280;56128;37.534;-122.308;2023-02-23T08:41:42;100971.56;;;1.15;100.00
69058;BME280;56128;37.534;-122.308;2023-02-23T08:44:08;100973.56;;;1.06;100.00
69058;BME280;56128;37.534;-122.308;2023-02-23T08:46:34;100971.84;;;1.05;100.00
69058;BME280;56128;37.534;-122.308;2023-02-23T08:49:01;100968.50;;;1.00;100.00
69058;BME280;56128;37.534;-122.308;2023-02-23T08:51:29;100968.63;;;0.97;100.00
69058;BME280;56128;37.534;-122.308;2023-02-23T08:53:55;100972.28;;;0.93;100.00
69058;BME280;56128;37.534;-122.308;2023-02-23T08:56:21;100968.91;;;0.88;100.00
69058;BME280;56128;37.534;-122.308;2023-02-23T08:58:50;100973.44;;;0.84;100.00
69058;BME280;56128;37.534;-122.308;2023-02-23T09:01:19;100978.91;;;0.76;100.00
69058;BME280;56128;37.534;-122.308;2023-02-23T09:03:47;100977.34;;;0.71;100.00
69058;BME280;56128;37.534;-122.308;2023-02-23T09:06:19;100983.66;;;0.67;100.00
69058;BME280;56128;37.534;-122.308;2023-02-23T09:08:46;100975.94;;;0.60;100.00
69058;BME280;56128;37.534;-122.308;2023-02-23T09:11:12;100978.69;;;0.56;100.00
69058;BME280;56128;37.534;-122.308;2023-02-23T09:13:38;100979.66;;;0.53;100.00
69058;BME280;56128;37.534;-122.308;2023-02-23T09:16:05;100982.44;;;0.48;100.00
69058;BME280;56128;37.534;-122.308;2023-02-23T09:18:35;100979.94;;;0.44;100.00
69058;BME280;56128;37.534;-122.308;2023-02-23T09:21:03;100982.59;;;0.42;100.00
69058;BME280;56128;37.534;-122.308;2023-02-23T09:23:34;100981.84;;;0.39;100.00
69058;BME280;56128;37.534;-122.308;2023-02-23T09:26:07;100990.66;;;0.38;100.00
69058;BME280;56128;37.534;-122.308;2023-02-23T09:28:34;100987.09;;;0.39;100.00
69058;BME280;56128;37.534;-122.308;2023-02-23T09:31:08;100989.84;;;0.36;100.00
69058;BME280;56128;37.534;-122.308;2023-02-23T09:33:34;100993.50;;;0.30;100.00
69058;BME280;56128;37.534;-122.308;2023-02-23T09:36:04;100989.25;;;0.26;100.00
69058;BME280;56128;37.534;-122.308;2023-02-23T09:38:30;100993.78;;;0.21;100.00
69058;BME280;56128;37.534;-122.308;2023-02-23T09:40:57;100992.97;;;0.19;100.00
69058;BME280;56128;37.534;-122.308;2023-02-23T09:43:38;100993.91;;;0.16;100.00
69058;BME280;56128;37.534;-122.308;2023-02-23T09:49:00;100999.47;;;0.07;100.00
69058;BME280;56128;37.534;-122.308;2023-02-23T09:51:39;100989.16;;;-0.01;100.00
69058;BME280;56128;37.534;-122.308;2023-02-23T09:54:10;100987.50;;;-0.05;100.00
69058;BME280;56128;37.534;-122.308;2023-02-23T09:56:42;100990.13;;;-0.05;100.00
69058;BME280;56128;37.534;-122.308;2023-02-23T09:59:15;100991.97;;;-0.07;100.00
69058;BME280;56128;37.534;-122.308;2023-02-23T10:04:23;100991.25;;;-0.12;100.00
69058;BME280;56128;37.534;-122.308;2023-02-23T10:07:05;100993.94;;;-0.15;100.00
69058;BME280;56128;37.534;-122.308;2023-02-23T10:10:05;100999.31;;;-0.20;100.00
69058;BME280;56128;37.534;-122.308;2023-02-23T10:12:55;100995.00;;;-0.21;100.00
69058;BME280;56128;37.534;-122.308;2023-02-23T10:18:24;100987.94;;;-0.21;100.00
69058;BME280;56128;37.534;-122.308;2023-02-23T10:24:12;100982.69;;;-0.21;100.00
69058;BME280;56128;37.534;-122.308;2023-02-23T10:27:02;100986.94;;;-0.17;100.00
69058;BME280;56128;37.534;-122.308;2023-02-23T10:32:23;100980.72;;;-0.12;100.00
69058;BME280;56128;37.534;-122.308;2023-02-23T10:34:54;100978.94;;;-0.12;100.00
69058;BME280;56128;37.534;-122.308;2023-02-23T10:37:22;100978.97;;;-0.13;100.00
69058;BME280;56128;37.534;-122.308;2023-02-23T10:39:50;100978.03;;;-0.11;100.00
69058;BME280;56128;37.534;-122.308;2023-02-23T10:42:22;100978.88;;;-0.10;100.00
69058;BME280;56128;37.534;-122.308;2023-02-23T10:44:53;100978.88;;;-0.09;100.00
69058;BME280;56128;37.534;-122.308;2023-02-23T10:47:25;100981.28;;;-0.01;100.00
69058;BME280;56128;37.534;-122.308;2023-02-23T10:49:56;100971.47;;;0.04;100.00
69058;BME280;56128;37.534;-122.308;2023-02-23T10:52:49;100974.66;;;0.15;100.00
69058;BME280;56128;37.534;-122.308;2023-02-23T10:55:30;100977.09;;;0.22;100.00
69058;BME280;56128;37.534;-122.308;2023-02-23T11:00:37;100967.16;;;0.31;100.00
69058;BME280;56128;37.534;-122.308;2023-02-23T11:03:20;100966.88;;;0.41;100.00
69058;BME280;56128;37.534;-122.308;2023-02-23T11:05:49;100974.44;;;0.52;100.00
69058;BME280;56128;37.534;-122.308;2023-02-23T11:08:21;100969.78;;;0.60;100.00
69058;BME280;56128;37.534;-122.308;2023-02-23T11:11:16;100975.69;;;0.68;100.00
69058;BME280;56128;37.534;-122.308;2023-02-23T11:13:47;100973.66;;;0.76;100.00
69058;BME280;56128;37.534;-122.308;2023-02-23T11:16:25;100983.91;;;0.86;100.00
69058;BME280;56128;37.534;-122.308;2023-02-23T11:18:59;100973.19;;;0.92;100.00
69058;BME280;56128;37.534;-122.308;2023-02-23T11:21:33;100980.91;;;0.96;100.00
69058;BME280;56128;37.534;-122.308;2023-02-23T11:24:27;100974.69;;;0.99;100.00
69058;BME280;56128;37.534;-122.308;2023-02-23T11:27:00;100972.72;;;1.06;100.00
69058;BME280;56128;37.534;-122.308;2023-02-23T11:29:39;100976.25;;;1.05;100.00
69058;BME280;56128;37.534;-122.308;2023-02-23T11:32:08;100976.31;;;1.03;100.00
69058;BME280;56128;37.534;-122.308;2023-02-23T11:34:38;100959.59;;;1.04;100.00
69058;BME280;56128;37.534;-122.308;2023-02-23T11:37:20;100960.31;;;1.09;100.00
69058;BME280;56128;37.534;-122.308;2023-02-23T11:40:31;100957.50;;;1.14;100.00
69058;BME280;56128;37.534;-122.308;2023-02-23T11:45:43;100954.47;;;1.00;100.00
69058;BME280;56128;37.534;-122.308;2023-02-23T11:48:40;100963.44;;;0.94;100.00
69058;BME280;56128;37.534;-122.308;2023-02-23T11:51:08;100970.63;;;0.89;100.00
69058;BME280;56128;37.534;-122.308;2023-02-23T11:53:38;100971.38;;;0.92;100.00
69058;BME280;56128;37.534;-122.308;2023-02-23T11:56:07;100974.69;;;0.99;100.00
69058;BME280;56128;37.534;-122.308;2023-02-23T11:58:46;100962.25;;;1.04;100.00
69058;BME280;56128;37.534;-122.308;2023-02-23T12:01:17;100948.25;;;1.02;100.00
69058;BME280;56128;37.534;-122.308;2023-02-23T12:03:52;100960.38;;;1.06;100.00
69058;BME280;56128;37.534;-122.308;2023-02-23T12:06:30;100965.66;;;1.06;100.00
69058;BME280;56128;37.534;-122.308;2023-02-23T12:09:26;100971.06;;;1.02;100.00
69058;BME280;56128;37.534;-122.308;2023-02-23T12:12:16;100968.66;;;0.95;100.00
69058;BME280;56128;37.534;-122.308;2023-02-23T12:15:05;100974.13;;;0.89;100.00
69058;BME280;56128;37.534;-122.308;2023-02-23T12:17:43;100970.88;;;0.81;100.00
69058;BME280;56128;37.534;-122.308;2023-02-23T12:20:16;100967.47;;;0.77;100.00
69058;BME280;56128;37.534;-122.308;2023-02-23T12:22:51;100978.91;;;0.76;100.00
69058;BME280;56128;37.534;-122.308;2023-02-23T12:25:50;100971.31;;;0.67;100.00
69058;BME280;56128;37.534;-122.308;2023-02-23T12:28:31;100977.56;;;0.64;100.00
69058;BME280;56128;37.534;-122.308;2023-02-23T12:31:14;100969.06;;;0.55;100.00
69058;BME280;56128;37.534;-122.308;2023-02-23T12:33:52;100970.94;;;0.51;100.00
69058;BME280;56128;37.534;-122.308;2023-02-23T12:39:13;100977.28;;;0.45;100.00
69058;BME280;56128;37.534;-122.308;2023-02-23T12:41:54;100978.22;;;0.43;100.00
69058;BME280;56128;37.534;-122.308;2023-02-23T12:44:54;100967.00;;;0.36;100.00
69058;BME280;56128;37.534;-122.308;2023-02-23T12:50:02;100984.66;;;0.32;100.00
69058;BME280;56128;37.534;-122.308;2023-02-23T12:52:45;100989.19;;;0.29;100.00
69058;BME280;56128;37.534;-122.308;2023-02-23T12:55:12;100986.63;;;0.26;100.00
69058;BME280;56128;37.534;-122.308;2023-02-23T12:57:57;100986.69;;;0.24;100.00
69058;BME280;56128;37.534;-122.308;2023-02-23T13:09:08;100987.88;;;0.12;100.00
69058;BME280;56128;37.534;-122.308;2023-02-23T13:14:48;100993.78;;;0.21;100.00
69058;BME280;56128;37.534;-122.308;2023-02-23T13:17:37;100991.94;;;0.24;100.00
69058;BME280;56128;37.534;-122.308;2023-02-23T13:31:32;101005.44;;;0.70;100.00
69058;BME280;56128;37.534;-122.308;2023-02-23T13:34:02;101012.84;;;0.87;100.00
69058;BME280;56128;37.534;-122.308;2023-02-23T13:36:30;101009.03;;;0.96;100.00
69058;BME280;56128;37.534;-122.308;2023-02-23T13:42:07;101034.59;;;1.21;100.00
69058;BME280;56128;37.534;-122.308;2023-02-23T13:45:23;101043.03;;;1.32;100.00
69058;BME280;56128;37.534;-122.308;2023-02-23T13:47:57;101035.00;;;1.35;100.00
69058;BME280;56128;37.534;-122.308;2023-02-23T13:50:28;101036.72;;;1.36;100.00
69058;BME280;56128;37.534;-122.308;2023-02-23T13:53:03;101037.53;;;1.38;100.00
69058;BME280;56128;37.534;-122.308;2023-02-23T13:55:42;101036.56;;;1.41;100.00
69058;BME280;56128;37.534;-122.308;2023-02-23T13:58:26;101036.56;;;1.41;100.00
69058;BME280;56128;37.534;-122.308;2023-02-23T14:01:16;101055.81;;;1.43;100.00
69058;BME280;56128;37.534;-122.308;2023-02-23T14:03:55;101063.72;;;1.44;100.00
69058;BME280;56128;37.534;-122.308;2023-02-23T14:06:28;101045.28;;;1.43;100.00
69058;BME280;56128;37.534;-122.308;2023-02-23T14:08:57;101049.44;;;1.50;100.00
69058;BME280;56128;37.534;-122.308;2023-02-23T14:11:43;101041.44;;;1.53;100.00